Time;durP1;ratioP1;P1;durP2;ratioP2;P2;SDS_P1;SDS_P2;PMS_P1;PMS_P2;Temp;Humidity;BMP_temperature;BMP_pressure;BME280_temperature;BME280_humidity;BME280_pressure;Samples;Min_cycle;Max_cycle;Signal;HPM_P1;HPM_P2
2023/06/12 00:01:25;;;;;;;5.80;5.30;;;19.60;78.70;;;;;;6081127;23;20423;-72
2023/06/12 00:03:57;;;;;;;5.93;5.53;;;19.60;79.00;;;;;;6083306;23;20443;-72
2023/06/12 00:06:25;;;;;;;5.80;5.40;;;19.50;79.40;;;;;;6088935;23;20525;-73
2023/06/12 00:08:52;;;;;;;5.80;5.30;;;19.50;79.90;;;;;;6088567;23;20470;-73
2023/06/12 00:11:20;;;;;;;5.27;4.87;;;19.40;80.20;;;;;;6087873;23;20852;-72
2023/06/12 00:13:48;;;;;;;5.53;5.10;;;19.30;80.50;;;;;;6086797;23;20507;-73
2023/06/12 00:16:16;;;;;;;5.50;5.07;;;19.30;81.00;;;;;;6090233;23;20977;-73
2023/06/12 00:18:44;;;;;;;5.33;5.00;;;19.20;81.10;;;;;;6091971;23;21316;-73
2023/06/12 00:21:12;;;;;;;5.73;5.20;;;19.20;81.70;;;;;;6088590;23;20518;-72
2023/06/12 00:23:40;;;;;;;5.73;5.27;;;19.10;82.00;;;;;;6086697;23;20456;-73
2023/06/12 00:26:08;;;;;;;5.57;5.27;;;19.10;82.30;;;;;;6087839;23;20962;-73
2023/06/12 00:28:35;;;;;;;5.63;5.10;;;19.00;82.30;;;;;;6089216;23;20504;-73
2023/06/12 00:31:02;;;;;;;5.60;5.20;;;19.00;82.70;;;;;;6086607;23;20872;-73
2023/06/12 00:33:31;;;;;;;5.37;5.07;;;19.00;83.10;;;;;;6084456;23;20465;-73
2023/06/12 00:35:58;;;;;;;5.63;5.23;;;18.90;83.50;;;;;;6087437;23;20476;-73
2023/06/12 00:38:25;;;;;;;5.40;5.00;;;18.80;83.80;;;;;;6081458;23;20551;-73
2023/06/12 00:40:52;;;;;;;5.77;5.30;;;18.90;84.40;;;;;;6088692;23;20466;-73
2023/06/12 00:43:19;;;;;;;5.80;5.40;;;18.80;84.60;;;;;;6090166;23;20916;-73
2023/06/12 00:45:47;;;;;;;5.80;5.40;;;18.80;85.10;;;;;;6087711;23;20534;-72
2023/06/12 00:48:14;;;;;;;5.83;5.37;;;18.70;85.30;;;;;;6083451;23;20961;-73
2023/06/12 00:50:44;;;;;;;5.90;5.50;;;18.80;85.80;;;;;;6091104;23;20953;-73
2023/06/12 00:53:12;;;;;;;5.90;5.33;;;18.80;86.10;;;;;;6089500;23;20438;-73
2023/06/12 00:55:39;;;;;;;5.90;5.50;;;18.70;86.40;;;;;;6086098;23;20509;-73
2023/06/12 00:58:07;;;;;;;5.20;4.80;;;18.70;86.70;;;;;;6090136;23;20517;-73
2023/06/12 01:00:38;;;;;;;6.03;5.53;;;18.70;87.10;;;;;;6086969;23;20513;-72
2023/06/12 01:03:07;;;;;;;6.10;5.60;;;18.70;87.30;;;;;;6090172;23;20822;-73
2023/06/12 01:05:37;;;;;;;5.90;5.40;;;18.70;87.80;;;;;;6084086;23;20944;-72
2023/06/12 01:08:17;;;;;;;5.97;5.57;;;18.70;88.40;;;;;;6088112;23;20488;-73
2023/06/12 01:10:47;;;;;;;6.07;5.67;;;18.60;88.80;;;;;;6085661;23;20509;-73
2023/06/12 01:13:16;;;;;;;5.93;5.47;;;18.60;89.50;;;;;;6086058;23;20938;-73
2023/06/12 01:15:43;;;;;;;5.80;5.40;;;18.50;89.60;;;;;;6089981;23;20458;-73
2023/06/12 01:18:11;;;;;;;5.80;5.50;;;18.50;90.00;;;;;;6085270;23;20557;-73
2023/06/12 01:20:39;;;;;;;5.70;5.30;;;18.50;90.10;;;;;;6091226;23;20441;-72
2023/06/12 01:23:15;;;;;;;5.60;5.20;;;18.40;90.40;;;;;;6089237;23;20513;-72
2023/06/12 01:26:04;;;;;;;6.00;5.60;;;18.40;90.70;;;;;;6082241;23;20836;-72
2023/06/12 01:28:56;;;;;;;5.17;4.87;;;18.40;91.00;;;;;;6085453;23;20454;-73
2023/06/12 01:31:29;;;;;;;5.70;5.30;;;18.40;91.10;;;;;;6085677;23;20525;-72
2023/06/12 01:34:02;;;;;;;5.93;5.53;;;18.40;91.30;;;;;;6082924;23;20779;-72
2023/06/12 01:36:36;;;;;;;6.63;6.23;;;18.30;91.50;;;;;;6084813;23;20480;-72
2023/06/12 01:39:04;;;;;;;5.93;5.53;;;18.30;91.60;;;;;;6079740;23;21033;-72
2023/06/12 01:41:32;;;;;;;5.77;5.37;;;18.20;91.60;;;;;;6086348;23;20967;-72
2023/06/12 01:44:08;;;;;;;6.37;5.83;;;18.20;91.80;;;;;;6085583;23;20431;-73
2023/06/12 01:46:35;;;;;;;5.90;5.50;;;18.20;91.90;;;;;;6087733;23;20446;-73
2023/06/12 01:49:05;;;;;;;6.27;5.87;;;18.20;92.00;;;;;;6086010;23;20451;-72
2023/06/12 01:51:32;;;;;;;6.10;5.70;;;18.20;92.20;;;;;;6091785;23;20438;-73
2023/06/12 01:54:00;;;;;;;6.37;5.97;;;18.30;92.40;;;;;;6090364;23;21218;-72
2023/06/12 01:56:28;;;;;;;6.50;6.03;;;18.20;92.50;;;;;;6091099;23;21004;-73
2023/06/12 01:58:55;;;;;;;6.87;6.27;;;18.20;92.80;;;;;;6085473;23;20455;-73
2023/06/12 02:01:23;;;;;;;6.63;6.13;;;18.10;93.20;;;;;;6094269;23;20443;-73
2023/06/12 02:03:53;;;;;;;5.77;5.40;;;18.10;93.10;;;;;;6089164;23;20457;-73
2023/06/12 02:06:21;;;;;;;5.80;5.40;;;18.00;93.30;;;;;;6088492;23;20885;-73
2023/06/12 02:08:50;;;;;;;6.50;6.00;;;18.00;93.50;;;;;;6086001;23;20537;-73
2023/06/12 02:11:17;;;;;;;6.20;5.70;;;18.00;93.50;;;;;;6087671;23;20431;-72
2023/06/12 02:13:44;;;;;;;6.80;6.30;;;18.00;93.70;;;;;;6090954;23;20438;-73
2023/06/12 02:16:13;;;;;;;6.47;5.97;;;18.00;93.90;;;;;;6090358;23;20933;-73
2023/06/12 02:18:41;;;;;;;6.50;6.00;;;18.00;94.10;;;;;;6086708;23;20463;-73
2023/06/12 02:21:08;;;;;;;6.10;5.70;;;18.00;94.40;;;;;;6089137;23;20595;-73
2023/06/12 02:23:37;;;;;;;6.23;5.73;;;18.00;94.60;;;;;;6087454;23;20438;-72
2023/06/12 02:26:04;;;;;;;5.93;5.50;;;17.90;94.90;;;;;;6086374;23;20446;-73
2023/06/12 02:28:31;;;;;;;6.03;5.60;;;17.90;95.20;;;;;;6090933;23;20879;-73
2023/06/12 02:31:00;;;;;;;5.70;5.30;;;17.80;95.60;;;;;;6092157;23;20790;-72
2023/06/12 02:33:27;;;;;;;6.57;6.07;;;17.90;95.70;;;;;;6085282;23;20447;-72
2023/06/12 02:35:54;;;;;;;6.40;6.00;;;17.80;95.70;;;;;;6087834;23;20462;-73
2023/06/12 02:38:21;;;;;;;6.40;5.90;;;17.70;96.00;;;;;;6082533;23;20478;-73
2023/06/12 02:40:50;;;;;;;7.57;6.70;;;17.70;96.30;;;;;;6087632;23;20443;-73
2023/06/12 02:43:17;;;;;;;6.40;5.90;;;17.60;96.70;;;;;;6087049;23;20494;-73
2023/06/12 02:45:44;;;;;;;6.90;6.30;;;17.60;96.90;;;;;;6090957;23;20476;-72
2023/06/12 02:48:11;;;;;;;6.00;5.60;;;17.60;97.00;;;;;;6087094;23;20490;-73
2023/06/12 02:50:38;;;;;;;6.47;6.00;;;17.60;97.10;;;;;;6086569;23;20930;-72
2023/06/12 02:53:05;;;;;;;6.63;6.23;;;17.60;97.30;;;;;;6090447;23;20526;-73
2023/06/12 02:55:39;;;;;;;5.97;5.57;;;17.60;97.80;;;;;;6089523;23;20538;-73
2023/06/12 02:58:08;;;;;;;6.60;6.10;;;17.60;98.10;;;;;;6089149;23;20533;-72
2023/06/12 03:00:35;;;;;;;5.83;5.47;;;17.50;98.30;;;;;;6089425;23;20437;-72
2023/06/12 03:03:02;;;;;;;5.90;5.50;;;17.20;98.30;;;;;;6089596;23;20498;-73
2023/06/12 03:05:30;;;;;;;6.03;5.63;;;17.50;98.60;;;;;;6092044;23;20513;-72
2023/06/12 03:07:57;;;;;;;6.80;6.30;;;17.50;98.80;;;;;;6086398;23;20994;-72
2023/06/12 03:10:24;;;;;;;6.43;6.00;;;17.50;99.10;;;;;;6085081;23;20548;-72
2023/06/12 03:12:51;;;;;;;5.87;5.43;;;17.50;99.50;;;;;;6090092;23;20469;-72
2023/06/12 03:15:20;;;;;;;6.73;6.27;;;17.50;99.70;;;;;;6088659;23;21004;-72
2023/06/12 03:17:47;;;;;;;5.90;5.50;;;17.50;99.90;;;;;;6088644;23;20470;-73
2023/06/12 03:20:15;;;;;;;6.27;5.80;;;17.50;99.90;;;;;;6079397;23;20515;-72
2023/06/12 03:22:42;;;;;;;6.60;6.10;;;17.50;99.90;;;;;;6081309;23;20435;-73
2023/06/12 03:25:10;;;;;;;6.67;6.17;;;17.50;99.90;;;;;;6085165;23;20417;-72
2023/06/12 03:27:37;;;;;;;6.23;5.83;;;17.50;99.90;;;;;;6087847;23;20449;-72
2023/06/12 03:30:05;;;;;;;5.50;5.00;;;17.60;99.90;;;;;;6090567;23;20521;-72
2023/06/12 03:32:33;;;;;;;6.40;5.90;;;17.60;99.90;;;;;;6088841;23;20438;-72
2023/06/12 03:35:01;;;;;;;6.40;5.90;;;17.60;99.90;;;;;;6087978;23;20529;-75
2023/06/12 03:37:28;;;;;;;6.80;6.30;;;17.60;99.90;;;;;;6086299;23;20498;-72
2023/06/12 03:39:55;;;;;;;6.73;6.23;;;17.60;99.90;;;;;;6086133;23;20438;-73
2023/06/12 03:42:23;;;;;;;6.87;6.37;;;17.60;99.90;;;;;;6088430;23;20435;-72
2023/06/12 03:44:50;;;;;;;6.23;5.83;;;17.60;99.90;;;;;;6089177;23;20439;-72
2023/06/12 03:47:17;;;;;;;6.60;6.20;;;17.60;99.90;;;;;;6087737;23;20509;-72
2023/06/12 03:49:46;;;;;;;6.70;6.30;;;17.70;99.90;;;;;;6087797;23;20462;-72
2023/06/12 03:52:13;;;;;;;6.90;6.40;;;17.70;99.90;;;;;;6089826;23;20496;-72
2023/06/12 03:54:40;;;;;;;6.20;5.70;;;17.60;99.90;;;;;;6086717;23;20434;-72
2023/06/12 03:57:07;;;;;;;7.07;6.57;;;17.60;99.90;;;;;;6093360;23;20500;-72
2023/06/12 03:59:35;;;;;;;6.57;5.90;;;17.60;99.90;;;;;;6086217;23;20463;-72
2023/06/12 04:02:02;;;;;;;5.80;5.43;;;17.60;99.90;;;;;;6085978;23;20441;-72
2023/06/12 04:04:29;;;;;;;6.37;5.97;;;17.60;99.90;;;;;;6080990;23;20523;-72
2023/06/12 04:06:59;;;;;;;6.90;6.40;;;17.70;99.90;;;;;;6087521;23;20430;-72
2023/06/12 04:09:26;;;;;;;5.93;5.53;;;17.70;99.90;;;;;;6087133;23;20455;-72
2023/06/12 04:11:53;;;;;;;6.30;5.90;;;17.70;99.90;;;;;;6087234;23;20987;-69
2023/06/12 04:14:21;;;;;;;7.47;6.87;;;17.80;99.90;;;;;;6083473;23;20434;-69
2023/06/12 04:16:48;;;;;;;7.10;6.23;;;17.80;99.90;;;;;;6085215;23;20470;-68
2023/06/12 04:19:15;;;;;;;7.00;6.50;;;17.90;99.90;;;;;;6080280;23;20961;-68
2023/06/12 04:21:42;;;;;;;6.83;6.33;;;17.90;99.90;;;;;;6087227;23;20458;-69
2023/06/12 04:24:15;;;;;;;6.80;6.30;;;18.00;99.90;;;;;;6089945;23;20501;-69
2023/06/12 04:26:46;;;;;;;5.90;5.50;;;18.00;99.90;;;;;;6089275;23;20513;-69
2023/06/12 04:29:13;;;;;;;6.63;6.13;;;18.10;99.90;;;;;;6087706;23;20447;-69
2023/06/12 04:31:40;;;;;;;6.70;6.20;;;18.20;99.90;;;;;;6089622;23;20472;-69
2023/06/12 04:34:07;;;;;;;7.10;6.60;;;18.20;99.90;;;;;;6085607;23;20438;-69
2023/06/12 04:36:37;;;;;;;5.77;5.37;;;18.30;99.90;;;;;;6085988;23;20886;-68
2023/06/12 04:39:05;;;;;;;6.47;6.07;;;18.30;99.90;;;;;;6086695;23;20461;-69
2023/06/12 04:41:36;;;;;;;6.60;6.07;;;18.40;99.90;;;;;;6088687;23;20439;-69
2023/06/12 04:44:03;;;;;;;7.23;6.53;;;18.40;99.90;;;;;;6084859;23;20431;-69
2023/06/12 04:46:32;;;;;;;6.93;6.53;;;18.50;99.90;;;;;;6078882;23;20442;-70
2023/06/12 04:49:00;;;;;;;7.20;6.60;;;18.50;99.90;;;;;;6076658;23;20971;-69
2023/06/12 04:51:26;;;;;;;6.50;6.00;;;18.60;99.90;;;;;;6082095;23;20429;-69
2023/06/12 04:53:55;;;;;;;7.20;6.63;;;18.60;99.90;;;;;;6089147;23;20458;-69
2023/06/12 04:56:22;;;;;;;6.40;5.90;;;18.60;99.90;;;;;;6087798;23;20470;-70
2023/06/12 04:58:51;;;;;;;6.87;6.37;;;18.70;99.90;;;;;;6084247;23;20482;-70
2023/06/12 05:01:19;;;;;;;6.93;6.43;;;18.80;99.90;;;;;;6078514;23;20938;-70
2023/06/12 05:03:47;;;;;;;6.77;6.30;;;18.90;99.90;;;;;;6082908;23;20471;-70
2023/06/12 05:06:33;;;;;;;6.93;6.43;;;19.00;99.90;;;;;;6089285;23;20422;-70
2023/06/12 05:09:05;;;;;;;6.77;6.27;;;19.10;99.90;;;;;;6089238;23;20461;-69
2023/06/12 05:11:32;;;;;;;7.20;6.70;;;19.20;99.90;;;;;;6078902;23;20958;-70
2023/06/12 05:14:01;;;;;;;7.00;6.50;;;19.30;99.90;;;;;;6084325;23;20445;-70
2023/06/12 05:16:29;;;;;;;8.47;7.77;;;19.40;99.90;;;;;;6083171;23;20550;-70
2023/06/12 05:18:57;;;;;;;7.20;6.70;;;19.50;99.90;;;;;;6085135;23;21023;-69
2023/06/12 05:21:24;;;;;;;6.27;5.87;;;19.60;99.90;;;;;;6087354;23;20451;-70
2023/06/12 05:23:51;;;;;;;7.30;6.70;;;19.80;99.90;;;;;;6086858;23;20869;-70
2023/06/12 05:26:18;;;;;;;6.30;5.90;;;19.70;99.90;;;;;;6092437;23;20433;-70
2023/06/12 05:28:45;;;;;;;6.80;6.40;;;19.80;99.90;;;;;;6088756;23;20483;-70
2023/06/12 05:31:13;;;;;;;7.20;6.73;;;19.90;99.90;;;;;;6087844;23;20515;-70
2023/06/12 05:33:40;;;;;;;6.87;6.37;;;20.00;99.90;;;;;;6081454;23;20436;-70
2023/06/12 05:36:08;;;;;;;5.97;5.67;;;20.10;99.90;;;;;;6082700;23;21028;-70
2023/06/12 05:38:35;;;;;;;6.90;6.50;;;20.20;99.90;;;;;;6082324;23;20484;-75
2023/06/12 05:41:02;;;;;;;7.00;6.40;;;20.20;99.90;;;;;;6074214;23;20436;-75
2023/06/12 05:43:29;;;;;;;6.80;6.40;;;20.30;99.90;;;;;;6077787;23;20441;-75
2023/06/12 05:45:56;;;;;;;7.20;6.73;;;20.30;99.90;;;;;;6079165;23;20445;-75
2023/06/12 05:48:25;;;;;;;6.70;6.30;;;20.30;99.90;;;;;;6082678;23;20505;-74
2023/06/12 05:50:52;;;;;;;6.50;6.10;;;20.40;99.90;;;;;;6080250;23;20494;-75
2023/06/12 05:53:20;;;;;;;6.83;6.30;;;20.40;99.90;;;;;;6071581;23;20445;-75
2023/06/12 05:55:47;;;;;;;6.80;6.30;;;20.50;99.90;;;;;;6070122;23;20573;-76
2023/06/12 05:58:14;;;;;;;6.50;6.10;;;20.60;99.90;;;;;;6072358;23;21052;-75
2023/06/12 06:00:43;;;;;;;7.23;6.73;;;20.50;99.90;;;;;;6060381;23;20447;-75
2023/06/12 06:03:10;;;;;;;7.37;6.77;;;20.40;99.90;;;;;;6072831;23;21147;-75
2023/06/12 06:05:39;;;;;;;7.33;6.80;;;20.30;99.90;;;;;;6076063;23;20447;-76
2023/06/12 06:08:06;;;;;;;7.20;6.70;;;20.40;99.90;;;;;;6065364;23;20523;-75
2023/06/12 06:10:33;;;;;;;7.37;6.73;;;20.40;99.90;;;;;;6073469;23;20516;-76
2023/06/12 06:13:00;;;;;;;7.20;6.70;;;20.30;99.90;;;;;;6078713;23;20782;-76
2023/06/12 06:15:27;;;;;;;7.03;6.53;;;20.40;99.90;;;;;;6076677;23;20530;-75
2023/06/12 06:17:55;;;;;;;6.90;6.50;;;20.50;99.90;;;;;;6068403;23;20568;-76
2023/06/12 06:20:22;;;;;;;6.80;6.40;;;20.60;99.90;;;;;;6080979;23;20438;-75
2023/06/12 06:22:50;;;;;;;7.43;6.93;;;20.80;99.90;;;;;;6068414;23;21450;-76
2023/06/12 06:25:17;;;;;;;7.57;7.07;;;21.00;99.90;;;;;;6061783;23;20535;-75
2023/06/12 06:27:44;;;;;;;7.37;6.83;;;21.10;99.90;;;;;;6058806;23;20465;-75
2023/06/12 06:30:12;;;;;;;7.53;7.03;;;21.00;99.90;;;;;;6071187;23;20446;-75
2023/06/12 06:32:39;;;;;;;6.83;6.23;;;21.00;99.90;;;;;;6080748;23;20442;-76
2023/06/12 06:35:07;;;;;;;7.40;6.90;;;21.00;99.90;;;;;;6091725;23;20429;-76
2023/06/12 06:37:35;;;;;;;7.50;6.80;;;21.10;99.90;;;;;;6092819;23;20466;-76
2023/06/12 06:40:05;;;;;;;7.30;6.83;;;21.20;99.90;;;;;;6079907;23;20444;-77
2023/06/12 06:42:32;;;;;;;6.90;6.50;;;21.20;99.90;;;;;;6078799;23;20926;-76
2023/06/12 06:45:00;;;;;;;7.10;6.50;;;21.30;99.90;;;;;;6077629;23;20433;-76
2023/06/12 06:47:28;;;;;;;7.70;7.00;;;21.20;99.90;;;;;;6074593;23;20554;-75
2023/06/12 06:49:56;;;;;;;8.07;7.47;;;21.20;99.90;;;;;;6086384;23;20430;-76
2023/06/12 06:52:23;;;;;;;7.17;6.77;;;21.30;99.90;;;;;;6067533;23;20448;-76
2023/06/12 06:54:51;;;;;;;7.30;6.80;;;21.30;99.90;;;;;;6083118;23;20433;-76
2023/06/12 06:57:21;;;;;;;7.80;7.20;;;21.40;99.90;;;;;;6078756;23;20474;-75
2023/06/12 06:59:48;;;;;;;7.50;7.00;;;21.50;99.90;;;;;;6075705;23;21026;-76
2023/06/12 07:02:15;;;;;;;6.90;6.40;;;21.50;99.90;;;;;;6076652;23;20439;-75
2023/06/12 07:04:42;;;;;;;7.10;6.50;;;21.50;99.90;;;;;;6082098;23;20510;-76
2023/06/12 07:07:10;;;;;;;6.73;6.23;;;21.60;99.90;;;;;;6075963;23;20454;-75
2023/06/12 07:09:36;;;;;;;7.60;6.90;;;21.80;99.90;;;;;;6076372;23;21116;-76
2023/06/12 07:12:04;;;;;;;7.23;6.67;;;21.90;99.90;;;;;;6061435;23;20450;-76
2023/06/12 07:14:33;;;;;;;7.10;6.40;;;22.00;99.90;;;;;;6064649;23;20447;-76
2023/06/12 07:17:00;;;;;;;7.20;6.50;;;22.10;99.90;;;;;;6072828;23;20541;-76
2023/06/12 07:19:27;;;;;;;6.87;6.37;;;22.30;99.90;;;;;;6075661;23;20489;-76
2023/06/12 07:21:54;;;;;;;6.67;6.17;;;22.40;99.90;;;;;;6069786;23;20439;-75
2023/06/12 07:24:21;;;;;;;6.97;6.47;;;22.50;99.90;;;;;;6081067;23;21148;-75
2023/06/12 07:26:48;;;;;;;6.80;6.30;;;22.60;99.90;;;;;;6084658;23;20426;-76
2023/06/12 07:29:15;;;;;;;6.97;6.47;;;22.80;99.90;;;;;;6076429;23;20443;-75
2023/06/12 07:31:44;;;;;;;7.60;7.00;;;22.80;99.90;;;;;;6083804;23;20427;-76
2023/06/12 07:34:11;;;;;;;7.30;6.70;;;22.80;99.40;;;;;;6080741;23;20445;-75
2023/06/12 07:36:39;;;;;;;6.77;6.30;;;22.90;99.90;;;;;;6075517;23;20443;-75
2023/06/12 07:39:06;;;;;;;6.80;6.30;;;23.10;99.90;;;;;;6082394;23;20469;-75
2023/06/12 07:41:38;;;;;;;6.53;5.97;;;23.20;99.20;;;;;;6060498;23;21926;-76
2023/06/12 07:44:06;;;;;;;6.87;6.27;;;23.40;98.80;;;;;;6077881;23;20699;-76
2023/06/12 07:46:33;;;;;;;6.17;5.77;;;23.60;98.90;;;;;;6089324;23;20427;-77
2023/06/12 07:49:01;;;;;;;6.47;5.87;;;23.80;97.70;;;;;;6077343;23;20541;-76
2023/06/12 07:51:30;;;;;;;7.23;6.73;;;23.90;97.70;;;;;;6079147;23;20438;-76
2023/06/12 07:53:57;;;;;;;6.60;6.00;;;24.10;97.80;;;;;;6085787;23;20515;-84
2023/06/12 07:56:24;;;;;;;6.80;6.40;;;24.30;97.90;;;;;;6079895;23;20449;-74
2023/06/12 07:58:52;;;;;;;6.60;6.20;;;24.50;96.10;;;;;;6069291;23;20474;-73
2023/06/12 08:01:22;;;;;;;7.10;6.50;;;24.60;95.60;;;;;;6066769;23;20461;-74
2023/06/12 08:03:49;;;;;;;6.60;6.07;;;24.60;95.40;;;;;;6069939;23;20448;-74
2023/06/12 08:06:17;;;;;;;6.33;5.87;;;24.80;95.80;;;;;;6077229;23;20438;-74
2023/06/12 08:08:46;;;;;;;7.10;6.60;;;25.10;95.10;;;;;;6064187;23;20457;-74
2023/06/12 08:11:14;;;;;;;6.20;5.80;;;25.40;94.10;;;;;;6081102;23;20818;-74
2023/06/12 08:13:41;;;;;;;5.97;5.57;;;25.60;94.10;;;;;;6069508;23;20448;-74
2023/06/12 08:16:08;;;;;;;6.83;6.33;;;25.80;94.20;;;;;;6080709;23;20430;-73
2023/06/12 08:18:36;;;;;;;5.47;5.17;;;26.00;93.10;;;;;;6076432;23;21648;-75
2023/06/12 08:21:03;;;;;;;6.00;5.53;;;26.30;93.40;;;;;;6078318;23;20473;-75
2023/06/12 08:23:31;;;;;;;6.10;5.70;;;26.60;93.20;;;;;;6070046;23;20553;-76
2023/06/12 08:25:58;;;;;;;5.70;5.40;;;27.20;93.00;;;;;;6078318;23;20500;-75
2023/06/12 08:28:25;;;;;;;6.00;5.60;;;27.30;92.20;;;;;;6087097;23;21007;-75
2023/06/12 08:30:57;;;;;;;7.33;6.67;;;27.70;91.30;;;;;;6085935;23;20434;-75
2023/06/12 08:33:24;;;;;;;5.97;5.57;;;28.00;89.70;;;;;;6082213;23;20434;-74
2023/06/12 08:35:52;;;;;;;6.27;5.87;;;27.90;89.90;;;;;;6092382;23;20532;-74
2023/06/12 08:38:19;;;;;;;5.70;5.30;;;27.70;89.20;;;;;;6077358;23;20470;-75
2023/06/12 08:40:48;;;;;;;6.37;5.87;;;27.40;89.50;;;;;;6077557;23;20470;-74
2023/06/12 08:43:15;;;;;;;5.80;5.30;;;27.30;89.80;;;;;;6062273;23;20443;-75
2023/06/12 08:45:47;;;;;;;6.60;6.10;;;27.50;89.70;;;;;;6070671;23;20437;-74
2023/06/12 08:48:18;;;;;;;5.87;5.47;;;27.50;87.50;;;;;;6076131;23;20537;-74
2023/06/12 08:50:47;;;;;;;5.40;5.00;;;27.60;84.50;;;;;;6082016;23;20443;-74
2023/06/12 08:53:15;;;;;;;6.10;5.50;;;27.70;83.70;;;;;;6069606;23;20992;-74
2023/06/12 08:55:44;;;;;;;5.27;4.90;;;27.70;84.00;;;;;;6068041;23;20886;-74
2023/06/12 08:58:13;;;;;;;6.50;6.10;;;27.70;82.10;;;;;;6086219;23;20589;-75
2023/06/12 09:00:40;;;;;;;5.93;5.53;;;27.70;78.70;;;;;;6083864;23;20434;-75
2023/06/12 09:03:07;;;;;;;6.13;5.63;;;27.80;79.10;;;;;;6072957;23;20524;-74
2023/06/12 09:05:37;;;;;;;6.47;5.87;;;27.90;77.10;;;;;;6082218;23;20987;-74
2023/06/12 09:08:05;;;;;;;5.40;5.00;;;28.10;75.90;;;;;;6069150;23;20527;-74
2023/06/12 09:10:32;;;;;;;5.47;5.13;;;27.80;76.40;;;;;;6067545;23;20438;-74
2023/06/12 09:13:01;;;;;;;6.80;6.20;;;27.70;77.70;;;;;;6084592;23;20446;-75
2023/06/12 09:15:29;;;;;;;6.20;5.70;;;28.00;77.70;;;;;;6078311;23;20443;-75
2023/06/12 09:17:57;;;;;;;5.77;5.27;;;28.30;73.50;;;;;;6067626;23;20500;-75
2023/06/12 09:20:26;;;;;;;5.60;5.20;;;28.10;72.70;;;;;;6084232;23;20426;-74
2023/06/12 09:22:53;;;;;;;5.67;5.37;;;28.00;74.40;;;;;;6081032;23;20438;-75
2023/06/12 09:25:21;;;;;;;5.60;5.20;;;28.20;73.60;;;;;;6079004;23;20517;-74
2023/06/12 09:27:49;;;;;;;5.67;5.27;;;28.40;72.90;;;;;;6084177;23;20461;-75
2023/06/12 09:30:17;;;;;;;5.70;5.40;;;27.90;73.00;;;;;;6069031;23;20435;-75
2023/06/12 09:32:45;;;;;;;6.27;5.87;;;27.50;74.80;;;;;;6068126;23;20438;-74
2023/06/12 09:35:13;;;;;;;5.13;4.83;;;27.40;74.80;;;;;;6077541;23;20529;-75
2023/06/12 09:37:41;;;;;;;6.13;5.63;;;27.50;74.00;;;;;;6073657;23;20980;-74
2023/06/12 09:40:10;;;;;;;5.90;5.50;;;27.70;72.80;;;;;;6073347;23;20430;-75
2023/06/12 09:42:38;;;;;;;6.07;5.57;;;27.70;72.70;;;;;;6073687;23;20950;-74
2023/06/12 09:45:12;;;;;;;5.53;5.10;;;27.70;72.10;;;;;;6072423;23;20526;-75
2023/06/12 09:47:46;;;;;;;5.57;5.17;;;27.70;72.10;;;;;;6071455;23;20458;-75
2023/06/12 09:50:15;;;;;;;5.40;5.00;;;27.90;72.40;;;;;;6072020;23;20431;-75
2023/06/12 09:52:43;;;;;;;5.73;5.33;;;28.20;70.10;;;;;;6061767;23;20444;-75
2023/06/12 09:55:13;;;;;;;5.70;5.30;;;28.10;68.60;;;;;;6062688;23;20446;-75
2023/06/12 09:57:43;;;;;;;6.10;5.50;;;27.80;71.00;;;;;;6085132;23;20555;-76
2023/06/12 10:00:16;;;;;;;6.13;5.73;;;27.90;68.90;;;;;;6087481;23;20534;-74
2023/06/12 10:02:51;;;;;;;5.50;5.20;;;28.10;68.60;;;;;;6079122;23;21011;-75
2023/06/12 10:05:22;;;;;;;5.40;5.10;;;28.10;68.70;;;;;;6085659;23;20438;-75
2023/06/12 10:07:54;;;;;;;5.70;5.07;;;28.20;68.10;;;;;;6083913;23;20537;-74
2023/06/12 10:10:22;;;;;;;5.10;4.60;;;28.10;68.10;;;;;;6081691;23;20434;-74
2023/06/12 10:12:52;;;;;;;5.40;5.10;;;28.30;69.60;;;;;;6085845;23;20433;-73
2023/06/12 10:15:20;;;;;;;5.33;5.00;;;28.60;69.10;;;;;;6081690;23;20510;-74
2023/06/12 10:17:51;;;;;;;5.80;5.30;;;28.80;66.10;;;;;;6083042;23;20558;-76
2023/06/12 10:20:19;;;;;;;6.00;5.50;;;28.80;65.50;;;;;;6080197;23;20944;-74
2023/06/12 10:22:47;;;;;;;5.10;4.70;;;28.70;65.60;;;;;;6073483;23;20431;-75
2023/06/12 10:25:16;;;;;;;5.23;4.93;;;28.60;62.70;;;;;;6066629;23;20448;-75
2023/06/12 10:27:43;;;;;;;5.40;5.07;;;28.70;65.50;;;;;;6081074;23;20981;-75
2023/06/12 10:30:12;;;;;;;5.83;5.30;;;28.60;66.20;;;;;;6081004;23;20952;-75
2023/06/12 10:32:42;;;;;;;5.50;5.20;;;28.60;63.40;;;;;;6069959;23;20474;-75
2023/06/12 10:35:10;;;;;;;5.07;4.77;;;28.80;65.30;;;;;;6068130;23;21420;-75
2023/06/12 10:37:42;;;;;;;5.63;5.20;;;29.20;66.40;;;;;;6080181;23;20454;-74
2023/06/12 10:40:12;;;;;;;5.70;5.30;;;29.80;64.30;;;;;;6081089;23;21197;-75
2023/06/12 10:42:44;;;;;;;5.20;4.80;;;30.50;60.60;;;;;;6085608;23;20467;-75
2023/06/12 10:45:22;;;;;;;5.90;5.50;;;30.90;60.00;;;;;;6081029;23;20446;-74
2023/06/12 10:48:13;;;;;;;5.33;5.03;;;30.90;58.80;;;;;;6079507;23;20454;-74
2023/06/12 10:50:45;;;;;;;5.40;5.07;;;30.50;58.80;;;;;;6080748;23;20439;-74
2023/06/12 10:53:13;;;;;;;5.77;5.20;;;30.00;59.40;;;;;;6082268;23;20453;-74
2023/06/12 10:55:42;;;;;;;5.13;4.83;;;30.40;59.70;;;;;;6089289;23;20442;-75
2023/06/12 10:58:12;;;;;;;5.50;5.20;;;30.80;58.10;;;;;;6086000;23;20466;-74
2023/06/12 11:00:45;;;;;;;5.87;5.47;;;31.20;57.70;;;;;;6081802;23;20437;-74
2023/06/12 11:03:14;;;;;;;5.67;5.27;;;31.00;57.40;;;;;;6063204;23;22042;-74
2023/06/12 11:05:48;;;;;;;5.77;5.30;;;30.70;58.40;;;;;;6080310;23;21017;-74
2023/06/12 11:08:16;;;;;;;5.50;5.10;;;30.50;59.00;;;;;;6083370;23;20988;-75
2023/06/12 11:10:44;;;;;;;5.97;5.37;;;30.70;58.40;;;;;;6077251;23;20441;-75
2023/06/12 11:13:11;;;;;;;5.20;4.90;;;30.80;58.10;;;;;;6079646;23;20438;-74
2023/06/12 11:15:43;;;;;;;5.80;5.37;;;30.60;58.70;;;;;;6077892;23;20782;-74
2023/06/12 11:18:10;;;;;;;5.93;5.50;;;30.20;57.80;;;;;;6071797;23;22042;-75
2023/06/12 11:20:37;;;;;;;5.30;5.00;;;30.20;57.70;;;;;;6079113;23;20473;-75
2023/06/12 11:23:06;;;;;;;5.70;5.30;;;30.20;58.00;;;;;;6085898;23;20445;-75
2023/06/12 11:25:35;;;;;;;5.33;4.83;;;30.50;57.40;;;;;;6083008;23;20443;-75
2023/06/12 11:28:03;;;;;;;5.77;5.03;;;30.40;56.20;;;;;;6085270;23;20457;-74
2023/06/12 11:30:31;;;;;;;5.20;4.90;;;29.90;56.60;;;;;;6082216;23;20435;-74
2023/06/12 11:32:58;;;;;;;5.73;5.07;;;30.20;57.30;;;;;;6082849;23;20513;-75
2023/06/12 11:35:25;;;;;;;4.50;4.20;;;30.40;56.60;;;;;;6079289;23;20460;-74
2023/06/12 11:37:53;;;;;;;5.30;4.90;;;30.20;55.20;;;;;;6085258;23;20540;-75
2023/06/12 11:40:21;;;;;;;5.23;4.83;;;30.30;54.70;;;;;;6083647;23;20439;-75
2023/06/12 11:42:49;;;;;;;5.57;4.90;;;30.40;55.70;;;;;;6075500;23;20986;-75
2023/06/12 11:45:17;;;;;;;4.60;4.30;;;30.40;56.60;;;;;;6070764;23;20446;-75
2023/06/12 11:47:46;;;;;;;6.00;5.43;;;30.70;56.10;;;;;;6082051;23;20450;-75
2023/06/12 11:50:15;;;;;;;4.97;4.63;;;30.90;54.80;;;;;;6083248;23;20435;-75
2023/06/12 11:52:43;;;;;;;4.60;4.30;;;30.70;54.70;;;;;;6081786;23;20496;-75
2023/06/12 11:55:12;;;;;;;4.93;4.60;;;30.90;56.10;;;;;;6079622;23;20510;-74
2023/06/12 11:57:46;;;;;;;5.00;4.70;;;31.10;54.30;;;;;;6085864;23;20461;-75
2023/06/12 12:00:17;;;;;;;4.80;4.50;;;31.10;54.60;;;;;;6076664;23;20474;-74
2023/06/12 12:02:46;;;;;;;5.40;5.00;;;31.30;53.00;;;;;;6082852;23;20434;-74
2023/06/12 12:05:16;;;;;;;5.67;5.27;;;31.20;53.60;;;;;;6078052;23;20434;-75
2023/06/12 12:07:45;;;;;;;5.27;4.97;;;31.50;54.90;;;;;;6072648;23;20466;-75
2023/06/12 12:10:14;;;;;;;5.40;5.07;;;31.70;53.00;;;;;;6085168;23;20431;-76
2023/06/12 12:12:44;;;;;;;5.33;4.87;;;31.60;52.70;;;;;;6081441;23;20492;-75
2023/06/12 12:15:12;;;;;;;5.70;5.30;;;31.50;51.50;;;;;;6079382;23;20474;-75
2023/06/12 12:17:41;;;;;;;5.03;4.73;;;31.30;51.50;;;;;;6078938;23;20462;-75
2023/06/12 12:20:15;;;;;;;5.73;5.33;;;31.00;51.60;;;;;;6080472;23;20461;-75
2023/06/12 12:22:43;;;;;;;5.03;4.53;;;30.90;51.50;;;;;;6079790;23;20439;-75
2023/06/12 12:25:15;;;;;;;5.60;5.00;;;30.70;51.30;;;;;;6068058;23;21476;-75
2023/06/12 12:27:45;;;;;;;5.13;4.63;;;30.60;51.60;;;;;;6080411;23;20464;-72
2023/06/12 12:30:15;;;;;;;5.33;4.93;;;30.40;51.50;;;;;;6091188;23;20442;-75
2023/06/12 12:32:47;;;;;;;5.20;4.80;;;30.70;51.80;;;;;;6086368;23;20466;-75
2023/06/12 12:35:15;;;;;;;7.13;5.03;;;30.80;53.30;;;;;;6082941;23;20525;-75
2023/06/12 12:37:42;;;;;;;4.87;4.57;;;31.10;52.80;;;;;;6083225;23;20454;-75
2023/06/12 12:40:10;;;;;;;4.90;4.60;;;31.80;52.40;;;;;;6077891;23;20458;-75
2023/06/12 12:42:39;;;;;;;4.57;4.17;;;32.60;52.30;;;;;;6080714;23;20456;-75
2023/06/12 12:45:10;;;;;;;5.40;5.00;;;33.30;49.80;;;;;;6076774;23;20443;-75
2023/06/12 12:47:40;;;;;;;5.20;4.80;;;33.00;48.10;;;;;;6084336;23;20857;-76
2023/06/12 12:50:08;;;;;;;5.50;5.00;;;32.70;48.00;;;;;;6080655;23;20842;-76
2023/06/12 12:52:35;;;;;;;4.93;4.63;;;33.00;47.70;;;;;;6085499;23;20430;-74
2023/06/12 12:55:05;;;;;;;5.10;4.70;;;33.40;47.20;;;;;;6084203;23;20522;-74